^^
Datos históricos de la estación: Murcia-Puente Tocinos
Diario Informe para Julio 30, 2019 Unidades:  Ingés    Métrico   Ambas
Diario Semanal Mensual Anual
  Máxima: Mínima: Promedio:
Temperatura: 89.4 °F 71.4 °F 79.7 °F
Punto de rocio: 68.2 °F 61.2 °F 65.5 °F
Humedad: 82% 40.5% 64%
Velocidad viento: 10.2mph 0mph 4mph
Racha viento: 18.4mph - -
Viento- - SE
Presión: 30.1 in 30 in -
Precipitación: 0 in    
 
 
Tabla de datos para Julio 30, 2019
Hora Temperatura Punto de rocio Presión Viento Velocidad viento Racha viento Humedad Intensidad lluvia(por hora) Nubes
00:04 75.9 °F 67.5 °F 30.1 in NNO 1.4 mph 3.6 mph 75% 0 in
00:09 75.9 °F 67.5 °F 30.1 in NNE 1.6 mph 4.7 mph 75% 0 in
00:14 75.9 °F 67.5 °F 30.1 in NE 2 mph 5 mph 75% 0 in
00:19 75.9 °F 67.5 °F 30.1 in NE 2 mph 5 mph 75% 0 in
00:24 75.9 °F 67.6 °F 30.1 in NE 2 mph 5 mph 75.4% 0 in
00:29 75.9 °F 67.8 °F 30.1 in NE 2.1 mph 5 mph 76% 0 in
00:34 75.9 °F 67.8 °F 30.1 in NE 2.4 mph 4 mph 76% 0 in
00:39 75.7 °F 67.6 °F 30.1 in NE 2.2 mph 5.2 mph 76% 0 in
00:44 75.7 °F 67.6 °F 30.1 in NE 1.8 mph 5.2 mph 76% 0 in
00:49 75.7 °F 67.6 °F 30.1 in NE 2.1 mph 5 mph 76% 0 in
00:54 75.6 °F 67.6 °F 30.1 in NE 2.9 mph 4.7 mph 76.4% 0 in
00:59 75.6 °F 67.8 °F 30.1 in NE 2.9 mph 5 mph 77% 0 in
01:04 75.4 °F 67.6 °F 30.1 in NE 2.9 mph 5 mph 77% 0 in
01:09 75.4 °F 67.6 °F 30.1 in NE 2.7 mph 4 mph 77% 0 in
01:14 75.2 °F 67.6 °F 30.1 in NE 2.4 mph 5 mph 77.4% 0 in
01:19 75 °F 67.6 °F 30.1 in NE 2.4 mph 5 mph 78% 0 in
01:24 75 °F 67.6 °F 30.1 in NE 2.4 mph 5 mph 78% 0 in
01:29 74.8 °F 67.5 °F 30.1 in ENE 2.4 mph 5 mph 78% 0 in
01:34 74.8 °F 67.6 °F 30.1 in Este 2.4 mph 4 mph 78.5% 0 in
01:39 74.7 °F 67.6 °F 30.1 in Sur 2.2 mph 3.5 mph 79% 0 in
01:44 74.7 °F 68 °F 30.1 in Sur 1.8 mph 3.5 mph 79.7% 0 in
01:49 74.7 °F 68.2 °F 30.1 in SSO 1.7 mph 3.6 mph 80% 0 in
01:54 74.7 °F 68 °F 30.1 in OSO 1.4 mph 5.2 mph 80% 0 in
01:59 74.5 °F 67.8 °F 30.1 in OSO 1.7 mph 5 mph 80% 0 in
02:04 74.3 °F 67.6 °F 30.1 in OSO 2.4 mph 5 mph 80% 0 in
02:09 74.1 °F 67.6 °F 30.1 in OSO 2.1 mph 3 mph 80% 0 in
02:14 74.1 °F 67.6 °F 30.1 in OSO 1.4 mph 2 mph 80% 0 in
02:19 74.1 °F 67.6 °F 30.1 in OSO 1 mph   80% 0 in
02:24 74.1 °F 67.6 °F 30.1 in Calm   4.6 mph 80% 0 in
02:29 73.9 °F 67.5 °F 30.1 in ENE 0.5 mph 5 mph 80.3% 0 in
02:34 73.9 °F 67.6 °F 30.1 in Este 1.8 mph 5 mph 81% 0 in
02:39 73.9 °F 67.8 °F 30.1 in Este 1.2 mph   81.5% 0 in
02:44 73.9 °F 68.2 °F 30.1 in Calm   2.9 mph 82% 0 in
02:49 73.9 °F 68.2 °F 30.1 in Calm   3.1 mph 82% 0 in
02:54 73.9 °F 68.2 °F 30.1 in Calm   3 mph 82% 0 in
02:59 73.8 °F 68 °F 30.1 in Calm     82% 0 in
03:04 73.8 °F 67.8 °F 30.1 in Calm     82% 0 in
03:09 73.8 °F 67.8 °F 30.1 in Calm     82% 0 in
03:14 73.8 °F 67.8 °F 30.1 in Calm     81.8% 0 in
03:19 73.8 °F 67.6 °F 30.1 in Calm     81% 0 in
03:24 73.9 °F 67.6 °F 30.1 in Calm   4.6 mph 81% 0 in
03:29 73.9 °F 67.6 °F 30.1 in Sur 0.4 mph 5 mph 81% 0 in
03:34 73.9 °F 67.6 °F 30.1 in Sur 1.4 mph 3 mph 81% 0 in
03:39 73.9 °F 67.5 °F 30.1 in Sur 1.4 mph 3.6 mph 80.1% 0 in
03:44 73.9 °F 67.5 °F 30.1 in SSE 1.4 mph 4.6 mph 80% 0 in
03:49 73.9 °F 67.5 °F 30.1 in SSE 1.7 mph 5 mph 80% 0 in
03:54 73.9 °F 67.5 °F 30.1 in SSE 2.4 mph 4 mph 80% 0 in
03:59 73.9 °F 67.5 °F 30.1 in SSE 1.6 mph 2.9 mph 80.4% 0 in
04:04 73.8 °F 67.3 °F 30.1 in Calm   3.6 mph 80.3% 0 in
04:09 73.8 °F 67.3 °F 30.1 in SSE 0.6 mph 4 mph 80% 0 in
04:14 73.8 °F 67.3 °F 30.1 in SSE 2 mph 3 mph 80% 0 in
04:19 73.8 °F 67.3 °F 30.1 in SSE 1.8 mph 2.9 mph 80% 0 in
04:24 73.6 °F 67.5 °F 30.1 in SSE 1.4 mph 3 mph 80.9% 0 in
04:29 73.6 °F 67.3 °F 30.1 in SSE 1 mph 2 mph 81% 0 in
04:34 73.2 °F 66.9 °F 30.1 in Calm   3.5 mph 80.5% 0 in
04:39 73 °F 66.4 °F 30.1 in SSE 0.5 mph 3.6 mph 80% 0 in
04:44 72.9 °F 66.6 °F 30.1 in SSE 1.8 mph 4 mph 81% 0 in
04:49 72.7 °F 66.6 °F 30.1 in SSE 1.3 mph 2.4 mph 81% 0 in
04:54 72.7 °F 66.6 °F 30.1 in Calm   2.3 mph 81% 0 in
04:59 72.7 °F 66.4 °F 30.1 in Calm   2 mph 81% 0 in
05:04 72.5 °F 66.4 °F 30.1 in Calm   2.3 mph 81% 0 in
05:09 72.5 °F 66.2 °F 30.1 in Calm   2 mph 81% 0 in
05:14 72.5 °F 66.4 °F 30.1 in Calm     81% 0 in
05:19 72.5 °F 66.4 °F 30.1 in Calm     81% 0 in
05:24 72.7 °F 66.2 °F 30.1 in Calm     80.3% 0 in
05:29 72.3 °F 65.8 °F 30.1 in SE 0.4 mph 4.7 mph 80% 0 in
05:34 72.3 °F 65.8 °F 30.1 in SE 1.4 mph 5 mph 80.1% 0 in
05:39 72.1 °F 66 °F 30.1 in SE 1.5 mph 5 mph 81% 0 in
05:44 72.1 °F 66 °F 30.1 in SSE 1.8 mph 3.6 mph 81% 0 in
05:49 72.1 °F 66.2 °F 30.1 in SSE 1.7 mph 4 mph 81.9% 0 in
05:54 72.1 °F 66.4 °F 30.1 in SSE 1.4 mph 2 mph 82% 0 in
05:59 72.1 °F 66.4 °F 30.1 in SSE 0.9 mph   82% 0 in
06:04 72.3 °F 66.6 °F 30.1 in Calm   1.8 mph 82% 0 in
06:09 72.3 °F 66.6 °F 30.1 in Calm   2.9 mph 82% 0 in
06:14 72.1 °F 66.4 °F 30.1 in Calm   3.1 mph 82% 0 in
06:19 72.1 °F 66.4 °F 30.1 in Sur 0.4 mph 3.6 mph 82% 0 in
06:24 72.1 °F 66.4 °F 30.1 in Sur 1.4 mph 4 mph 82% 0 in
06:29 72.1 °F 66.4 °F 30.1 in Sur 1.6 mph 3.6 mph 82% 0 in
06:34 72.1 °F 66.4 °F 30.1 in Sur 2 mph 4 mph 82% 0 in
06:39 72 °F 66 °F 30.1 in Sur 2.1 mph 6.9 mph 81.4% 0 in
06:44 72 °F 65.7 °F 30.1 in SSO 2.4 mph 7 mph 80.3% 0 in
06:49 72 °F 65.5 °F 30.1 in SO 2.9 mph 7 mph 80% 0 in
06:54 72 °F 65.5 °F 30.1 in SO 4 mph 6 mph 80% 0 in
06:59 72 °F 65.5 °F 30.1 in OSO 3.7 mph 6 mph 80% 0 in
07:04 72 °F 65.5 °F 30.1 in OSO 3.1 mph 6 mph 80% 0 in
07:09 71.8 °F 65.3 °F 30.1 in OSO 3.1 mph 6 mph 80% 0 in
07:14 71.8 °F 65.3 °F 30.1 in OSO 3.1 mph 5 mph 80% 0 in
07:19 71.8 °F 65.3 °F 30.1 in OSO 2.6 mph 5 mph 80% 0 in
07:24 71.8 °F 65.3 °F 30.1 in OSO 1.4 mph 4.6 mph 80% 0 in
07:29 71.8 °F 65.3 °F 30.1 in SO 1.7 mph 5 mph 80% 0 in
07:34 71.8 °F 65.3 °F 30.1 in SSE 2.4 mph 5.2 mph 80% 0 in
07:39 71.8 °F 65.3 °F 30.1 in SE 2.5 mph 5 mph 80% 0 in
07:44 71.8 °F 65.3 °F 30.1 in SSE 2.9 mph 6.2 mph 80% 0 in
07:49 71.6 °F 65.3 °F 30.1 in SSE 3.3 mph 6.2 mph 80.6% 0 in
07:54 71.4 °F 65.3 °F 30.1 in Sur 4.3 mph 6 mph 81% 0 in
07:59 71.4 °F 65.1 °F 30.1 in Sur 4.2 mph 6.2 mph 80.4% 0 in
08:04 71.4 °F 64.9 °F 30.1 in Sur 4 mph 6 mph 80% 0 in
08:09 71.4 °F 64.6 °F 30.1 in SSO 3.7 mph 6.2 mph 79.1% 0 in
08:14 71.6 °F 64.6 °F 30.1 in OSO 3.1 mph 6 mph 78.8% 0 in
08:19 71.8 °F 64.6 °F 30.1 in SO 3.1 mph 5.2 mph 78% 0 in
08:24 72 °F 64.4 °F 30.1 in OSO 3.1 mph 5.8 mph 77.1% 0 in
08:29 72.1 °F 64.6 °F 30.1 in OSO 3.1 mph 6.9 mph 77% 0 in
08:34 72.3 °F 64.8 °F 30.1 in OSO 3.1 mph 7 mph 77% 0 in
08:39 72.7 °F 64.8 °F 30.1 in OSO 3.1 mph 5.8 mph 76.3% 0 in
08:44 72.9 °F 64.6 °F 30.1 in SO 3.1 mph 6 mph 75.5% 0 in
08:49 72.9 °F 63.9 °F 30.1 in SO 3.1 mph 6 mph 73.3% 0 in
08:54 73 °F 63.3 °F 30.1 in OSO 3.1 mph 6 mph 71.6% 0 in
08:59 73 °F 63.1 °F 30.1 in OSO 3.2 mph 6 mph 71.2% 0 in
09:04 73.2 °F 63.5 °F 30.1 in Oeste 3.6 mph 6 mph 71.8% 0 in
09:09 73.6 °F 63.7 °F 30.1 in OSO 3.5 mph 5.2 mph 71.1% 0 in
09:14 73.8 °F 63.5 °F 30.1 in OSO 3.1 mph 5 mph 70.4% 0 in
09:19 73.9 °F 63.7 °F 30.1 in SO 2.9 mph 5.2 mph 70% 0 in
09:24 74.5 °F 63.9 °F 30.1 in Sur 2.4 mph 5.9 mph 69.4% 0 in
09:29 74.7 °F 63.9 °F 30.1 in SSO 2.7 mph 6 mph 69% 0 in
09:34 74.8 °F 63.9 °F 30.1 in SSO 3.6 mph 6 mph 68.3% 0 in
09:39 74.8 °F 63.7 °F 30.1 in Sur 3.6 mph 6.2 mph 68.1% 0 in
09:44 75 °F 63.9 °F 30.1 in SSO 3.6 mph 6 mph 68.5% 0 in
09:49 75.2 °F 64 °F 30.1 in SSO 3.4 mph 6.2 mph 68% 0 in
09:54 75.4 °F 64 °F 30.1 in SSO 3.1 mph 6 mph 68% 0 in
09:59 75.7 °F 64 °F 30.1 in SO 3 mph 6.2 mph 67.3% 0 in
10:04 75.9 °F 63.9 °F 30.1 in SO 2.9 mph 6 mph 66% 0 in
10:09 76.5 °F 64.2 °F 30.1 in SO 3.1 mph 6 mph 65.9% 0 in
10:14 76.6 °F 64.4 °F 30.1 in SSO 3.6 mph 6.9 mph 65.5% 0 in
10:19 76.8 °F 64.4 °F 30.1 in SSO 3.8 mph 8.1 mph 65.2% 0 in
10:24 77.2 °F 64.4 °F 30.1 in SO 4.3 mph 8 mph 64.9% 0 in
10:29 77.4 °F 64.4 °F 30.1 in SSO 4.3 mph 8.1 mph 64.6% 0 in
10:34 77.4 °F 64.4 °F 30.1 in SSO 4.3 mph 8.1 mph 64.5% 0 in
10:39 77.5 °F 64.4 °F 30.1 in SSO 4.5 mph 9.7 mph 64% 0 in
10:44 77.9 °F 64.8 °F 30.1 in Sur 5.2 mph 10 mph 64% 0 in
10:49 78.3 °F 65.1 °F 30.1 in SSO 4.9 mph 7 mph 64% 0 in
10:54 78.4 °F 65.1 °F 30.1 in SSO 4.3 mph 7 mph 63.5% 0 in
10:59 79 °F 64.9 °F 30.1 in SO 3.9 mph 6.2 mph 62.4% 0 in
11:04 79.2 °F 64.8 °F 30.1 in SO 2.9 mph 7.4 mph 61.4% 0 in
11:09 79.3 °F 64.6 °F 30.1 in ONO 3.1 mph 7.6 mph 60.6% 0 in
11:14 79.9 °F 64.9 °F 30.1 in Oeste 3.6 mph 8 mph 60.5% 0 in
11:19 80.2 °F 64.8 °F 30.1 in Sur 3.2 mph 6 mph 59.2% 0 in
11:24 80.6 °F 64.6 °F 30.1 in OSO 2.4 mph 5.9 mph 58.2% 0 in
11:29 81 °F 64.6 °F 30.1 in OSO 2.6 mph 6 mph 57.4% 0 in
11:34 81 °F 64.4 °F 30.1 in SO 3.1 mph 6 mph 57% 0 in
11:39 81.5 °F 64.2 °F 30.1 in ESE 2.8 mph 5 mph 56% 0 in
11:44 82 °F 64.4 °F 30.1 in NNE 2 mph 5.2 mph 55.3% 0 in
11:49 82.6 °F 64.8 °F 30.1 in NNE 2 mph 5 mph 54.9% 0 in
11:54 83.3 °F 64.6 °F 30.1 in NNO 2 mph 4.7 mph 53.4% 0 in
11:59 83.7 °F 64.8 °F 30.1 in ONO 2 mph 5 mph 53.1% 0 in
12:04 83.8 °F 64.8 °F 30.1 in Oeste 2 mph 5.9 mph 53% 0 in
12:09 83.7 °F 64.8 °F 30.1 in North 2.2 mph 6 mph 53% 0 in
12:14 84 °F 63.9 °F 30.1 in ESE 2.9 mph 5.9 mph 51% 0 in
12:19 84.6 °F 63.5 °F 30.1 in ESE 2.9 mph 6 mph 49.5% 0 in
12:24 84.7 °F 63.7 °F 30.1 in Este 2.9 mph 5.4 mph 49.4% 0 in
12:29 85.3 °F 64 °F 30.1 in NNO 2.9 mph 6.9 mph 49.3% 0 in
12:34 85.5 °F 64.4 °F 30.1 in ENE 2.9 mph 7 mph 49.6% 0 in
12:39 85.8 °F 64.2 °F 30.1 in ENE 2.9 mph 6 mph 48.6% 0 in
12:44 86.4 °F 64.9 °F 30.1 in ENE 2.9 mph 8.1 mph 49.1% 0 in
12:49 86.5 °F 65.5 °F 30.1 in ENE 3.1 mph 9.2 mph 49.6% 0 in
12:54 86.4 °F 65.8 °F 30.1 in NE 3.6 mph 9.2 mph 50.6% 0 in
12:59 86.4 °F 66 °F 30.1 in ENE 4 mph 9 mph 51.2% 0 in
13:04 86.4 °F 66 °F 30.1 in ENE 4.7 mph 12.7 mph 50.7% 0 in
13:09 86.2 °F 65.5 °F 30.1 in ENE 4.9 mph 13 mph 50.1% 0 in
13:14 86.2 °F 65.7 °F 30.1 in NE 5.4 mph 10.4 mph 50.5% 0 in
13:19 86.4 °F 65.3 °F 30.1 in NE 5.5 mph 11.5 mph 49.7% 0 in
13:24 86.5 °F 65.1 °F 30.1 in NE 5.9 mph 12 mph 49.1% 0 in
13:29 86.9 °F 64.9 °F 30.1 in NE 5.7 mph 10 mph 48.1% 0 in
13:34 87.4 °F 64.8 °F 30.1 in NE 5.2 mph 8 mph 47.1% 0 in
13:39 87.6 °F 64.9 °F 30.1 in ESE 5 mph 9.2 mph 47% 0 in
13:44 87.6 °F 64.9 °F 30.1 in ESE 4.7 mph 9.2 mph 47.1% 0 in
13:49 88 °F 65.1 °F 30.1 in NE 4.9 mph 10.7 mph 47% 0 in
13:54 88.2 °F 65.1 °F 30 in Este 5.4 mph 11 mph 46.5% 0 in
13:59 88.5 °F 65.7 °F 30 in NE 5.2 mph 11.5 mph 46.9% 0 in
14:04 88.5 °F 65.7 °F 30 in NE 4.7 mph 16.1 mph 47% 0 in
14:09 88.3 °F 65.5 °F 30 in NE 5.5 mph 16 mph 46.9% 0 in
14:14 88.5 °F 65.5 °F 30 in NE 7.4 mph 12 mph 46.5% 0 in
14:19 88.9 °F 65.1 °F 30 in ENE 7 mph 12.7 mph 45.4% 0 in
14:24 89.1 °F 65.1 °F 30 in Este 5.9 mph 13 mph 45.1% 0 in
14:29 89.2 °F 64.9 °F 30 in Este 5.9 mph 12 mph 44.8% 0 in
14:34 89.2 °F 64.6 °F 30 in ESE 5.9 mph 11 mph 44% 0 in
14:39 89.4 °F 64.6 °F 30 in SE 6 mph 12.7 mph 44.1% 0 in
14:44 89.4 °F 64.6 °F 30 in SE 6.2 mph 13 mph 44% 0 in
14:49 89.2 °F 64.6 °F 30 in SE 6.2 mph 12 mph 44.1% 0 in
14:54 89.2 °F 65.3 °F 30 in ESE 6.2 mph 12.7 mph 45.1% 0 in
14:59 89.2 °F 66.6 °F 30 in SE 6.8 mph 15.2 mph 47.2% 0 in
15:04 89.1 °F 66.4 °F 30 in SE 8.1 mph 15 mph 47.1% 0 in
15:09 89.1 °F 66.7 °F 30 in SE 8.1 mph 15 mph 47.9% 0 in
15:14 89.1 °F 66.6 °F 30 in ESE 8.1 mph 18.4 mph 47.5% 0 in
15:19 88.7 °F 65.8 °F 30 in SE 8.4 mph 18.4 mph 46.9% 0 in
15:24 88.7 °F 65.5 °F 30 in ESE 9.2 mph 17.3 mph 46.3% 0 in
15:29 88.9 °F 65.1 °F 30 in SE 9.1 mph 17.3 mph 45.7% 0 in
15:34 89.1 °F 64.9 °F 30 in SE 8.7 mph 17.3 mph 45% 0 in
15:39 88.9 °F 64.9 °F 30 in SE 8.7 mph 17 mph 45.1% 0 in
15:44 89.1 °F 64.4 °F 30 in ESE 8.7 mph 16.1 mph 44.3% 0 in
15:49 89.1 °F 63.9 °F 30 in SE 8.7 mph 17.3 mph 43.4% 0 in
15:54 89.1 °F 63.5 °F 30 in SE 8.7 mph 17.3 mph 42.6% 0 in
15:59 88.9 °F 63.1 °F 30 in SE 9.2 mph 17 mph 42.5% 0 in
16:04 88.3 °F 62.1 °F 30 in SE 10.2 mph 17.3 mph 41.5% 0 in
16:09 88.5 °F 62.6 °F 30 in SE 10.2 mph 17 mph 42% 0 in
16:14 88.9 °F 63 °F 30 in SE 10.2 mph 15 mph 42.4% 0 in
16:19 88.9 °F 63.9 °F 30 in ESE 10.1 mph 15.2 mph 43.6% 0 in
16:24 88.9 °F 64 °F 30 in SE 9.7 mph 17.5 mph 44% 0 in
16:29 88.9 °F 63.7 °F 30 in SE 9.7 mph 17.3 mph 43.3% 0 in
16:34 89.1 °F 63.9 °F 30 in ESE 9.7 mph 15 mph 43.4% 0 in
16:39 89.4 °F 63.7 °F 30 in ESE 9.1 mph 13 mph 42.5% 0 in
16:44 89.1 °F 62.8 °F 30 in ESE 7.6 mph 14 mph 41.7% 0 in
16:49 88.9 °F 63.1 °F 30 in Este 7.8 mph 14 mph 42.4% 0 in
16:54 89.1 °F 62.4 °F 30 in ESE 8.1 mph 16.1 mph 41.1% 0 in
16:59 88.7 °F 62.1 °F 30 in SE 8.3 mph 16 mph 41% 0 in
17:04 88.5 °F 61.7 °F 30 in ESE 8.7 mph 16.3 mph 40.9% 0 in
17:09 88.3 °F 62.1 °F 30 in ESE 9 mph 16 mph 41.7% 0 in
17:14 88.3 °F 61.9 °F 30 in ESE 9.7 mph 15 mph 41.4% 0 in
17:19 88.3 °F 62.1 °F 30 in ESE 9.4 mph 15 mph 41.7% 0 in
17:24 88.3 °F 62.1 °F 30 in ESE 8.5 mph 17.3 mph 41.7% 0 in
17:29 88.2 °F 62.2 °F 30 in Este 8.6 mph 17 mph 42% 0 in
17:34 88.2 °F 61.7 °F 30 in Este 8.7 mph 15 mph 41.3% 0 in
17:39 88.2 °F 61.5 °F 30 in ESE 8.3 mph 15 mph 41.2% 0 in
17:44 88.2 °F 61.2 °F 30 in ESE 7.4 mph 16.3 mph 40.5% 0 in
17:49 88.2 °F 61.2 °F 30 in ESE 7.4 mph 16 mph 40.6% 0 in
17:54 88 °F 62.1 °F 30 in Este 7.4 mph 13 mph 42% 0 in
17:59 87.6 °F 61.9 °F 30 in Este 7 mph 11.5 mph 42% 0 in
18:04 87.4 °F 61.9 °F 30 in ESE 6.2 mph 12 mph 42.3% 0 in
18:09 87.4 °F 61.5 °F 30 in ESE 6.2 mph 12 mph 41.9% 0 in
18:14 87.4 °F 61.5 °F 30 in ESE 6.2 mph 12.7 mph 42% 0 in
18:19 87.3 °F 61.3 °F 30 in ESE 6.5 mph 13 mph 42% 0 in
18:24 87.3 °F 61.7 °F 30 in ESE 7.4 mph 10.4 mph 42.6% 0 in
18:29 87.3 °F 61.3 °F 30 in ESE 7.1 mph 10 mph 42% 0 in
18:34 87.1 °F 61.9 °F 30 in ESE 6.2 mph 9.2 mph 42.9% 0 in
18:39 87.1 °F 62.4 °F 30 in Este 5.9 mph 10.4 mph 43.7% 0 in
18:44 87.1 °F 61.9 °F 30 in ESE 5.2 mph 10.4 mph 43% 0 in
18:49 86.9 °F 62.4 °F 30 in ESE 5.5 mph 10 mph 44.2% 0 in
18:54 86.7 °F 63 °F 30 in ESE 6.4 mph 10.4 mph 45% 0 in
18:59 86.7 °F 63.1 °F 30 in ESE 6.3 mph 10 mph 45.4% 0 in
19:04 86.5 °F 62.6 °F 30 in ESE 6.2 mph 10 mph 44.9% 0 in
19:09 86.5 °F 62.8 °F 30 in ESE 6 mph 9 mph 45.2% 0 in
19:14 86.4 °F 63.3 °F 30 in ENE 5.4 mph 10.4 mph 46.2% 0 in
19:19 86.2 °F 63.7 °F 30 in ENE 5.4 mph 10 mph 47% 0 in
19:24 86.2 °F 63.5 °F 30 in Este 5.4 mph 9.2 mph 47% 0 in
19:29 85.8 °F 63.9 °F 30 in ENE 5.2 mph 9 mph 47.8% 0 in
19:34 85.6 °F 64.4 °F 30 in ENE 4.7 mph 9.2 mph 49.1% 0 in
19:39 85.3 °F 64.6 °F 30 in NE 4.9 mph 11.8 mph 50.1% 0 in
19:44 84.7 °F 64.8 °F 30 in NE 5.4 mph 12 mph 51% 0 in
19:49 84.7 °F 64.8 °F 30 in NE 5.4 mph 10 mph 51.2% 0 in
19:54 84.6 °F 65.1 °F 30 in NE 5.4 mph 9.2 mph 52.3% 0 in
19:59 84.4 °F 65.3 °F 30 in ENE 5.3 mph 9.2 mph 53% 0 in
20:04 84 °F 65.1 °F 30 in NE 5.2 mph 9 mph 53% 0 in
20:09 84 °F 64.9 °F 30 in ENE 4.8 mph 7.4 mph 53% 0 in
20:14 83.8 °F 65.3 °F 30 in ENE 4 mph 8.5 mph 53.9% 0 in
20:19 83.7 °F 65.5 °F 30 in ENE 4.2 mph 9.2 mph 54.3% 0 in
20:24 83.5 °F 65.8 °F 30 in NE 4.7 mph 10 mph 55.4% 0 in
20:29 82.9 °F 65.8 °F 30 in NE 5 mph 10.7 mph 56.2% 0 in
20:34 82.8 °F 66 °F 30 in NE 5.9 mph 11 mph 57% 0 in
20:39 82.4 °F 66 °F 30 in NE 5.8 mph 9 mph 57.7% 0 in
20:44 82.2 °F 66 °F 30 in ENE 5.4 mph 7 mph 58% 0 in
20:49 82 °F 66.2 °F 30 in NE 5 mph 8.5 mph 58.8% 0 in
20:54 81.9 °F 66.4 °F 30 in NE 4 mph 9.2 mph 59.6% 0 in
20:59 81.3 °F 66.4 °F 30 in NE 4.7 mph 10.4 mph 60.7% 0 in
21:04 81.1 °F 66.6 °F 30 in ENE 6.2 mph 10 mph 61.3% 0 in
21:09 81 °F 66.7 °F 30 in ENE 5.9 mph 9 mph 62% 0 in
21:14 80.6 °F 66.7 °F 30 in NE 5.2 mph 8.5 mph 63% 0 in
21:19 80.2 °F 66.9 °F 30 in NE 5.3 mph 9.2 mph 63.9% 0 in
21:24 80.1 °F 67.3 °F 30 in NE 5.4 mph 9 mph 64.9% 0 in
21:29 80.1 °F 67.1 °F 30 in NE 5.6 mph 8.1 mph 65% 0 in
21:34 79.9 °F 67.1 °F 30 in NNE 5.9 mph 8.7 mph 65.2% 0 in
21:39 79.5 °F 67.3 °F 30 in NNE 5.8 mph 9.2 mph 66% 0 in
21:44 79.3 °F 67.1 °F 30 in NE 5.4 mph 9 mph 66.2% 0 in
21:49 79.2 °F 67.3 °F 30 in NE 5.5 mph 9.2 mph 67% 0 in
21:54 79 °F 67.3 °F 30 in NE 5.9 mph 9.2 mph 67.4% 0 in
21:59 78.8 °F 67.3 °F 30 in NE 5.7 mph 8.1 mph 68% 0 in
22:04 78.8 °F 67.3 °F 30 in NE 5.4 mph 8 mph 68% 0 in
22:09 78.8 °F 67.3 °F 30 in NE 5.2 mph 7 mph 68% 0 in
22:14 78.6 °F 67.3 °F 30 in NE 4.7 mph 9.2 mph 68% 0 in
22:19 78.4 °F 67.3 °F 30 in NE 4.9 mph 9.2 mph 68.7% 0 in
22:24 78.4 °F 67.5 °F 30 in NE 5.4 mph 9 mph 69% 0 in
22:29 78.3 °F 67.3 °F 30 in NE 5 mph 7 mph 69% 0 in
22:34 78.1 °F 67.5 °F 30 in NE 4 mph 8.1 mph 69.6% 0 in
22:39 77.9 °F 67.3 °F 30 in NNE 4.2 mph 8 mph 70% 0 in
22:44 77.7 °F 67.5 °F 30 in North 4.7 mph 7 mph 70.5% 0 in
22:49 77.7 °F 67.5 °F 30 in NNO 4.5 mph 6 mph 71% 0 in
22:54 77.5 °F 67.5 °F 30 in North 4 mph 6.2 mph 71% 0 in
22:59 77.5 °F 67.5 °F 30 in NNO 3.7 mph 6 mph 71% 0 in
23:04 77.5 °F 67.8 °F 30 in NNO 2.9 mph 5 mph 72% 0 in
23:09 77.5 °F 67.8 °F 30 in NNO 2.5 mph 4.6 mph 72% 0 in
23:14 77.5 °F 67.8 °F 30 in NNE 1.4 mph 5.2 mph 72% 0 in
23:19 77.4 °F 67.6 °F 30 in NE 1.9 mph 6 mph 72% 0 in
23:24 77.4 °F 67.6 °F 30 in NE 3.1 mph 6 mph 72% 0 in
23:29 77.4 °F 68 °F 30 in NE 3.4 mph 6.2 mph 72.9% 0 in
23:34 77.2 °F 67.8 °F 30 in NE 4 mph 6 mph 73% 0 in
23:39 77.2 °F 67.8 °F 30 in Este 3.5 mph 5 mph 73% 0 in
23:44 77.2 °F 67.8 °F 30 in ESE 2.4 mph 5.2 mph 73% 0 in
23:49 77 °F 67.6 °F 30 in Este 2.5 mph 5 mph 73% 0 in
23:54 76.8 °F 67.8 °F 30 in Este 2.9 mph 5 mph 73.8% 0 in
23:59 76.8 °F 67.8 °F 30 in ENE 2.4 mph 3 mph 74% 0 in
Murcia-Puente Tocinos, España
Compliments of Weather Underground - 3 mb

La estación de MeteoMurcia.com, publica sus datos en los siguientes proyectos:

Weather Underground PWS IMURCIAP2 Meteoclimatic www.awekas.at

W3Counter
Web Analytics